Time;durP1;ratioP1;P1;durP2;ratioP2;P2;SDS_P1;SDS_P2;PMS_P1;PMS_P2;Temp;Humidity;BMP_temperature;BMP_pressure;BME280_temperature;BME280_humidity;BME280_pressure;Samples;Min_cycle;Max_cycle;Signal;HPM_P1;HPM_P2
2021/03/12 00:01:19;;;;;;;23.27;9.40;;;;;;;-3.16;62.36;99729.70;1737497;82;21201;-70
2021/03/12 00:03:47;;;;;;;18.20;9.80;;;;;;;-3.18;62.38;99733.97;1714585;82;20983;-78
2021/03/12 00:06:15;;;;;;;25.68;10.25;;;;;;;-3.18;62.45;99729.09;1736938;82;21086;-73
2021/03/12 00:08:46;;;;;;;23.83;8.45;;;;;;;-3.16;62.21;99716.73;1737032;82;20931;-75
2021/03/12 00:11:14;;;;;;;18.27;9.25;;;;;;;-3.15;62.16;99717.02;1736958;82;21122;-67
2021/03/12 00:13:44;;;;;;;19.82;9.33;;;;;;;-3.15;62.24;99711.63;1736981;82;21367;-79
2021/03/12 00:16:17;;;;;;;22.20;10.08;;;;;;;-3.18;62.25;99710.22;1737099;82;21133;-72
2021/03/12 00:18:50;;;;;;;17.67;10.10;;;;;;;-3.16;62.30;99707.30;1737033;82;20995;-65
2021/03/12 00:21:20;;;;;;;17.85;9.08;;;;;;;-3.18;62.53;99702.13;1736955;82;21491;-81
2021/03/12 00:23:48;;;;;;;20.45;10.28;;;;;;;-3.24;62.39;99699.00;1736971;82;21121;-77
2021/03/12 00:26:16;;;;;;;20.05;9.23;;;;;;;-3.27;62.49;99700.25;1737078;82;21606;-73
2021/03/12 00:28:51;;;;;;;22.48;10.98;;;;;;;-3.25;62.33;99690.59;1715554;82;21217;-81
2021/03/12 00:31:21;;;;;;;19.02;10.60;;;;;;;-3.23;62.36;99680.41;1737026;82;20928;-79
2021/03/12 00:33:49;;;;;;;18.07;10.00;;;;;;;-3.20;62.54;99671.36;1736952;82;20979;-75
2021/03/12 00:36:20;;;;;;;18.73;8.68;;;;;;;-3.18;62.38;99659.83;1737016;82;20928;-75
2021/03/12 00:38:49;;;;;;;20.25;9.75;;;;;;;-3.16;62.16;99671.73;1736921;82;21146;-76
2021/03/12 00:41:17;;;;;;;30.43;10.30;;;;;;;-3.18;62.04;99671.96;1736864;81;21117;-69
2021/03/12 00:43:48;;;;;;;28.65;11.30;;;;;;;-3.18;61.98;99674.66;1735799;82;21023;-68
2021/03/12 00:46:27;;;;;;;25.52;11.88;;;;;;;-3.19;61.99;99664.09;1736317;82;21086;-78
2021/03/12 00:48:57;;;;;;;27.37;10.58;;;;;;;-3.19;61.85;99655.47;1737003;82;21129;-79
2021/03/12 00:51:30;;;;;;;26.23;10.58;;;;;;;-3.20;61.69;99660.57;1714154;82;22204;-69
2021/03/12 00:54:17;;;;;;;18.45;9.58;;;;;;;-3.17;61.89;99643.11;1777056;79;22704;-67
2021/03/12 00:56:50;;;;;;;17.43;9.50;;;;;;;-3.21;61.98;99641.38;1749636;82;21381;-67
2021/03/12 00:59:22;;;;;;;26.85;10.55;;;;;;;-3.21;61.93;99645.42;1749485;82;22048;-68
2021/03/12 01:01:55;;;;;;;20.92;9.63;;;;;;;-3.19;61.74;99637.14;1719993;82;21003;-68
2021/03/12 01:04:34;;;;;;;23.70;9.70;;;;;;;-3.16;61.83;99621.02;1749471;82;20959;-67
2021/03/12 01:07:05;;;;;;;29.52;10.78;;;;;;;-3.17;61.77;99621.53;1749084;82;20983;-68
2021/03/12 01:09:33;;;;;;;16.23;8.90;;;;;;;-3.19;61.97;99604.79;1749486;81;21070;-69
2021/03/12 01:12:01;;;;;;;20.57;8.78;;;;;;;-3.16;62.04;99614.28;1749473;82;21199;-71
2021/03/12 01:14:31;;;;;;;19.05;8.30;;;;;;;-3.14;61.78;99600.05;1720350;82;21633;-72
2021/03/12 01:17:00;;;;;;;16.97;8.88;;;;;;;-3.13;61.63;99599.83;1749437;82;20928;-67
2021/03/12 01:19:30;;;;;;;24.07;9.10;;;;;;;-3.16;61.51;99597.59;1749422;82;21179;-67
2021/03/12 01:22:04;;;;;;;30.15;12.37;;;;;;;-3.18;61.40;99585.69;1749451;81;21165;-67
2021/03/12 01:24:34;;;;;;;20.65;9.80;;;;;;;-3.19;61.36;99587.27;1720254;82;21150;-67
2021/03/12 01:27:09;;;;;;;16.60;8.93;;;;;;;-3.18;61.49;99586.20;1749493;82;21555;-69
2021/03/12 01:29:38;;;;;;;19.80;9.47;;;;;;;-3.16;61.44;99600.80;1749722;81;20952;-67
2021/03/12 01:32:11;;;;;;;19.07;9.78;;;;;;;-3.19;61.36;99611.53;1748452;82;21500;-67
2021/03/12 01:34:42;;;;;;;14.00;7.58;;;;;;;-3.20;61.41;99604.47;1748781;82;21587;-67
2021/03/12 01:37:09;;;;;;;23.80;9.78;;;;;;;-3.19;61.35;99612.33;1749521;82;21543;-68
2021/03/12 01:39:43;;;;;;;28.35;10.23;;;;;;;-3.21;61.29;99613.08;1747865;82;21046;-66
2021/03/12 01:42:12;;;;;;;17.80;8.38;;;;;;;-3.24;61.48;99617.58;1729220;82;21018;-72
2021/03/12 01:44:41;;;;;;;21.42;8.68;;;;;;;-3.23;61.37;99616.55;1691325;83;21585;-67
2021/03/12 01:47:10;;;;;;;18.55;9.38;;;;;;;-3.24;61.33;99608.14;1719614;83;21094;-68
2021/03/12 01:49:40;;;;;;;23.38;8.35;;;;;;;-3.21;61.28;99598.80;1719623;83;22129;-75
2021/03/12 01:52:11;;;;;;;15.80;8.95;;;;;;;-3.21;61.25;99598.80;1719398;83;21177;-72
2021/03/12 01:54:47;;;;;;;18.05;8.88;;;;;;;-3.22;61.41;99593.09;1720388;83;21078;-70
2021/03/12 01:57:17;;;;;;;20.57;9.25;;;;;;;-3.27;61.44;99580.30;1693617;83;21152;-78
2021/03/12 01:59:49;;;;;;;18.87;8.58;;;;;;;-3.31;61.67;99561.05;1718253;83;21083;-68
2021/03/12 02:02:50;;;;;;;22.35;9.13;;;;;;;-3.32;61.91;99554.55;1720002;83;21102;-67
2021/03/12 02:05:26;;;;;;;24.65;8.15;;;;;;;-3.35;61.94;99556.34;1716709;83;21027;-77
2021/03/12 02:07:59;;;;;;;21.70;9.45;;;;;;;-3.35;62.05;99558.53;1719811;83;21597;-72
2021/03/12 02:10:29;;;;;;;19.32;8.85;;;;;;;-3.33;61.97;99556.95;1719341;83;21157;-68
2021/03/12 02:13:05;;;;;;;18.05;9.03;;;;;;;-3.37;62.24;99547.66;1669499;83;21079;-69
2021/03/12 02:15:47;;;;;;;17.27;8.88;;;;;;;-3.40;62.41;99548.95;1719725;83;21231;-74
2021/03/12 02:18:44;;;;;;;19.37;8.83;;;;;;;-3.40;62.25;99536.82;1719785;83;21464;-69
2021/03/12 02:21:33;;;;;;;22.98;8.63;;;;;;;-3.39;62.32;99541.67;1719923;83;22364;-70
2021/03/12 02:24:22;;;;;;;20.95;9.25;;;;;;;-3.47;62.60;99542.81;1719889;83;21011;-69
2021/03/12 02:27:11;;;;;;;24.27;9.18;;;;;;;-3.51;62.60;99535.70;1719876;83;20944;-78
2021/03/12 02:29:48;;;;;;;17.57;8.58;;;;;;;-3.52;62.70;99525.98;1720013;83;21091;-67
2021/03/12 02:32:29;;;;;;;23.70;9.20;;;;;;;-3.52;62.70;99515.72;1693052;83;20943;-74
2021/03/12 02:34:59;;;;;;;15.48;8.73;;;;;;;-3.55;62.86;99510.27;1719819;83;20983;-76
2021/03/12 02:37:28;;;;;;;22.02;8.88;;;;;;;-3.55;62.75;99511.08;1672235;83;21491;-72
2021/03/12 02:39:59;;;;;;;20.25;9.60;;;;;;;-3.56;62.85;99511.30;1719822;83;21157;-68
2021/03/12 02:42:40;;;;;;;22.35;9.93;;;;;;;-3.59;62.82;99507.20;1719323;82;21037;-74
2021/03/12 02:45:11;;;;;;;20.23;8.48;;;;;;;-3.62;62.80;99513.05;1719853;83;21078;-77
2021/03/12 02:47:42;;;;;;;23.07;10.32;;;;;;;-3.63;62.78;99522.16;1719841;83;20896;-77
2021/03/12 02:50:12;;;;;;;18.45;9.23;;;;;;;-3.64;62.90;99520.53;1719500;83;21133;-67
2021/03/12 02:52:44;;;;;;;21.75;9.93;;;;;;;-3.64;62.93;99521.05;1718392;83;21137;-69
2021/03/12 02:55:15;;;;;;;20.23;9.90;;;;;;;-3.65;62.88;99507.29;1706344;84;21213;-68
2021/03/12 02:57:45;;;;;;;22.00;9.35;;;;;;;-3.65;62.86;99493.27;1686456;84;21141;-67
2021/03/12 03:00:36;;;;;;;21.00;9.05;;;;;;;-3.68;62.79;99501.30;1686311;84;21012;-72
2021/03/12 03:03:10;;;;;;;16.35;8.60;;;;;;;-3.69;62.87;99490.23;1700469;84;21570;-77
2021/03/12 03:05:44;;;;;;;20.10;9.83;;;;;;;-3.70;62.72;99489.13;1696790;84;20978;-76
2021/03/12 03:08:14;;;;;;;19.32;9.40;;;;;;;-3.68;62.83;99495.08;1701230;84;21200;-77
2021/03/12 03:10:42;;;;;;;21.42;9.30;;;;;;;-3.69;62.70;99482.67;1673856;84;21547;-68
2021/03/12 03:13:13;;;;;;;18.25;9.50;;;;;;;-3.67;62.75;99475.19;1701248;84;20934;-69
2021/03/12 03:15:41;;;;;;;17.32;9.15;;;;;;;-3.68;62.88;99476.22;1701148;84;21097;-74
2021/03/12 03:18:12;;;;;;;19.20;9.05;;;;;;;-3.68;62.96;99476.22;1701202;84;21072;-69
2021/03/12 03:20:42;;;;;;;25.62;10.60;;;;;;;-3.70;63.08;99471.61;1701133;83;21253;-69
2021/03/12 03:23:12;;;;;;;16.40;8.33;;;;;;;-3.71;63.20;99466.73;1673910;84;21152;-79
2021/03/12 03:25:44;;;;;;;23.27;10.27;;;;;;;-3.72;63.06;99463.73;1675255;84;20959;-66
2021/03/12 03:28:13;;;;;;;24.25;11.57;;;;;;;-3.73;63.31;99474.73;1700145;83;21602;-78
2021/03/12 03:30:42;;;;;;;27.87;11.60;;;;;;;-3.75;63.28;99472.27;1701343;84;21056;-77
2021/03/12 03:33:11;;;;;;;23.42;10.30;;;;;;;-3.74;63.22;99463.16;1701173;84;21503;-68
2021/03/12 03:35:41;;;;;;;25.75;9.50;;;;;;;-3.77;63.23;99462.23;1701287;84;21153;-77
2021/03/12 03:38:09;;;;;;;18.00;9.30;;;;;;;-3.78;63.26;99457.91;1701201;84;21566;-77
2021/03/12 03:40:41;;;;;;;19.98;9.53;;;;;;;-3.79;63.23;99447.66;1698334;84;21137;-74
2021/03/12 03:43:10;;;;;;;19.12;9.40;;;;;;;-3.81;63.25;99456.50;1673000;85;21185;-71
2021/03/12 03:45:39;;;;;;;19.48;8.50;;;;;;;-3.80;63.20;99443.84;1673029;85;22298;-70
2021/03/12 03:48:10;;;;;;;17.42;9.40;;;;;;;-3.79;63.07;99438.77;1672299;85;21167;-65
2021/03/12 03:50:39;;;;;;;22.90;9.68;;;;;;;-3.80;63.15;99443.84;1646119;85;21618;-71
2021/03/12 03:53:10;;;;;;;20.23;10.80;;;;;;;-3.82;63.00;99434.64;1647328;85;21205;-68
2021/03/12 03:55:39;;;;;;;19.62;10.20;;;;;;;-3.83;63.09;99416.02;1672978;85;21168;-66
2021/03/12 03:58:07;;;;;;;24.90;10.32;;;;;;;-3.88;63.13;99411.84;1672994;85;21370;-74
2021/03/12 04:00:39;;;;;;;21.42;9.10;;;;;;;-3.93;63.28;99430.86;1673025;85;21579;-77
2021/03/12 04:03:15;;;;;;;19.67;9.23;;;;;;;-3.95;63.48;99422.70;1668877;85;21535;-78
2021/03/12 04:05:50;;;;;;;23.15;9.58;;;;;;;-3.96;63.54;99414.33;1672085;85;23070;-66
2021/03/12 04:08:19;;;;;;;21.75;10.38;;;;;;;-3.97;63.51;99439.59;1672991;85;21225;-71
2021/03/12 04:10:51;;;;;;;21.33;9.80;;;;;;;-3.97;63.44;99426.96;1672961;85;21336;-70
2021/03/12 04:13:19;;;;;;;19.85;9.08;;;;;;;-3.99;63.43;99427.70;1672973;85;21033;-69
2021/03/12 04:15:47;;;;;;;18.80;9.03;;;;;;;-4.03;63.43;99427.33;1672859;85;21608;-77
2021/03/12 04:18:19;;;;;;;21.80;9.70;;;;;;;-4.03;63.32;99436.75;1672887;85;21584;-74
2021/03/12 04:20:58;;;;;;;19.37;9.70;;;;;;;-4.06;63.26;99458.75;1668795;85;21168;-78
2021/03/12 04:23:27;;;;;;;25.17;9.75;;;;;;;-4.11;63.58;99441.09;1672970;85;21395;-71
2021/03/12 04:25:55;;;;;;;20.90;10.08;;;;;;;-4.12;63.52;99413.06;1672952;85;21001;-78
2021/03/12 04:28:24;;;;;;;24.30;9.93;;;;;;;-4.12;63.33;99431.39;1672948;85;21081;-76
2021/03/12 04:30:55;;;;;;;19.30;8.90;;;;;;;-4.10;63.56;99425.27;1647350;85;21530;-76
2021/03/12 04:33:23;;;;;;;17.32;9.15;;;;;;;-4.06;63.49;99435.86;1672912;85;21214;-68
2021/03/12 04:35:55;;;;;;;21.15;9.90;;;;;;;-4.05;63.17;99432.14;1672906;85;20978;-72
2021/03/12 04:38:30;;;;;;;26.85;9.83;;;;;;;-4.07;63.37;99441.47;1672950;85;21172;-77
2021/03/12 04:40:59;;;;;;;21.25;9.23;;;;;;;-4.08;63.23;99445.22;1672964;84;21570;-68
2021/03/12 04:43:28;;;;;;;20.00;9.75;;;;;;;-4.08;63.29;99445.22;1646657;85;21188;-77
2021/03/12 04:46:05;;;;;;;20.97;9.13;;;;;;;-4.12;63.31;99446.70;1672995;85;21608;-78
2021/03/12 04:48:39;;;;;;;19.30;9.18;;;;;;;-4.14;63.45;99450.17;1672705;85;22412;-71
2021/03/12 04:51:09;;;;;;;31.73;10.50;;;;;;;-4.10;63.49;99452.70;1668786;85;21553;-72
2021/03/12 04:53:39;;;;;;;27.45;10.30;;;;;;;-4.11;63.39;99459.14;1672955;85;21168;-77
2021/03/12 04:56:08;;;;;;;22.62;9.98;;;;;;;-4.11;63.30;99459.14;1672910;85;21565;-74
2021/03/12 04:58:44;;;;;;;27.22;10.43;;;;;;;-4.11;63.27;99455.10;1668646;85;21220;-66
2021/03/12 05:01:11;;;;;;;20.97;10.35;;;;;;;-4.12;63.44;99442.67;1672351;85;22174;-78
2021/03/12 05:03:40;;;;;;;21.45;9.25;;;;;;;-4.10;63.49;99452.70;1663029;86;21140;-77
2021/03/12 05:06:09;;;;;;;20.62;10.90;;;;;;;-4.11;63.20;99437.61;1663002;86;21014;-69
2021/03/12 05:08:40;;;;;;;30.68;10.23;;;;;;;-4.13;63.22;99440.52;1640490;86;21144;-75
2021/03/12 05:11:10;;;;;;;40.50;11.18;;;;;;;-4.13;63.34;99446.42;1662185;86;21128;-78
2021/03/12 05:13:42;;;;;;;25.70;12.55;;;;;;;-4.11;63.52;99442.98;1662764;86;22261;-69
2021/03/12 05:16:13;;;;;;;24.02;9.95;;;;;;;-4.11;63.43;99445.14;1662959;86;21111;-79
2021/03/12 05:18:45;;;;;;;19.02;9.10;;;;;;;-4.11;63.38;99444.33;1663172;86;21105;-77
2021/03/12 05:21:14;;;;;;;33.25;11.18;;;;;;;-4.13;63.38;99461.23;1662935;85;21184;-73
2021/03/12 05:23:44;;;;;;;25.08;10.55;;;;;;;-4.12;63.54;99444.02;1662808;84;21522;-73
2021/03/12 05:26:12;;;;;;;24.72;10.28;;;;;;;-4.09;63.42;99440.88;1663035;86;22279;-77
2021/03/12 05:28:43;;;;;;;26.52;10.93;;;;;;;-4.10;63.40;99444.11;1662903;86;21543;-78
2021/03/12 05:31:14;;;;;;;35.05;11.40;;;;;;;-4.11;63.42;99428.19;1640768;86;21219;-79
2021/03/12 05:34:00;;;;;;;24.35;11.38;;;;;;;-4.12;63.49;99423.83;1662741;86;21586;-75
2021/03/12 05:36:27;;;;;;;23.90;10.98;;;;;;;-4.12;63.52;99425.17;1663073;86;21600;-76
2021/03/12 05:38:56;;;;;;;30.52;12.40;;;;;;;-4.13;63.49;99428.41;1663116;86;21439;-78
2021/03/12 05:41:27;;;;;;;28.10;11.03;;;;;;;-4.11;63.62;99425.48;1662653;84;21188;-78
2021/03/12 05:44:04;;;;;;;26.80;11.85;;;;;;;-4.13;63.60;99415.47;1663136;86;21093;-75
2021/03/12 05:46:36;;;;;;;22.58;10.98;;;;;;;-4.12;63.67;99421.97;1662820;86;21173;-78
2021/03/12 05:49:08;;;;;;;23.15;10.15;;;;;;;-4.09;63.60;99424.72;1663057;86;21192;-76
2021/03/12 05:51:39;;;;;;;37.23;11.05;;;;;;;-4.05;63.55;99433.48;1663157;86;21205;-78
2021/03/12 05:54:09;;;;;;;34.08;11.15;;;;;;;-3.99;63.12;99436.33;1640508;86;21670;-70
2021/03/12 05:56:54;;;;;;;27.02;10.82;;;;;;;-3.96;63.00;99434.52;1643040;86;21089;-72
2021/03/12 05:59:25;;;;;;;30.02;11.63;;;;;;;-3.91;63.04;99427.94;1663203;85;21073;-67
2021/03/12 06:02:04;;;;;;;29.00;11.30;;;;;;;-3.90;63.01;99416.11;1645191;85;21232;-69
2021/03/12 06:04:33;;;;;;;24.43;10.50;;;;;;;-3.91;63.11;99407.74;1673137;85;21327;-69
2021/03/12 06:07:04;;;;;;;22.65;9.55;;;;;;;-3.87;62.84;99426.97;1672945;85;21108;-71
2021/03/12 06:09:34;;;;;;;25.60;11.38;;;;;;;-3.85;62.81;99413.56;1672927;85;21212;-68
2021/03/12 06:12:02;;;;;;;31.02;11.57;;;;;;;-3.77;62.74;99408.37;1646366;85;21080;-69
2021/03/12 06:14:54;;;;;;;23.73;10.13;;;;;;;-3.76;62.41;99394.39;1672966;85;21481;-71
2021/03/12 06:17:45;;;;;;;21.45;11.12;;;;;;;-3.75;62.32;99402.78;1672353;85;21611;-68
2021/03/12 06:20:28;;;;;;;22.37;10.78;;;;;;;-3.77;62.00;99400.84;1672874;85;21123;-70
2021/03/12 06:23:05;;;;;;;26.12;11.97;;;;;;;-3.77;62.35;99373.36;1648039;85;21164;-71
2021/03/12 06:25:34;;;;;;;27.17;11.20;;;;;;;-3.73;62.24;99373.72;1673041;85;21107;-70
2021/03/12 06:28:18;;;;;;;23.27;11.00;;;;;;;-3.67;62.50;99368.79;1673004;85;21621;-68
2021/03/12 06:31:27;;;;;;;30.80;11.22;;;;;;;-3.54;62.00;99361.02;1815904;79;22647;-70
2021/03/12 06:34:08;;;;;;;30.15;11.55;;;;;;;-3.55;61.57;99366.13;1789028;80;20975;-70
2021/03/12 06:36:45;;;;;;;25.00;10.95;;;;;;;-3.59;61.57;99347.42;1754755;80;21582;-66
2021/03/12 06:39:15;;;;;;;22.32;10.48;;;;;;;-3.60;61.62;99353.87;1788167;80;21002;-67
2021/03/12 06:41:50;;;;;;;55.23;12.60;;;;;;;-3.60;61.57;99347.94;1754822;80;20943;-66
2021/03/12 06:44:36;;;;;;;39.05;10.45;;;;;;;-3.60;61.28;99361.41;1757461;81;21026;-68
2021/03/12 06:47:07;;;;;;;20.68;10.68;;;;;;;-3.58;61.11;99357.97;1757158;81;21062;-66
2021/03/12 06:49:55;;;;;;;29.10;10.68;;;;;;;-3.56;61.50;99353.17;1728445;81;21371;-67
2021/03/12 06:52:35;;;;;;;27.87;11.28;;;;;;;-3.49;61.30;99353.59;1755754;81;21085;-73
2021/03/12 06:55:06;;;;;;;25.77;9.53;;;;;;;-3.43;61.51;99362.92;1757034;81;21049;-69
2021/03/12 06:57:35;;;;;;;19.73;10.20;;;;;;;-3.37;60.78;99373.31;1756321;81;21022;-77
2021/03/12 07:00:21;;;;;;;28.75;13.58;;;;;;;-3.34;60.60;99367.97;1757836;81;21176;-68
2021/03/12 07:02:53;;;;;;;30.52;13.53;;;;;;;-3.34;60.53;99349.94;1706709;81;22406;-75
2021/03/12 07:05:30;;;;;;;40.85;14.73;;;;;;;-3.29;60.41;99350.58;1729771;81;21157;-69
2021/03/12 07:08:00;;;;;;;30.55;12.73;;;;;;;-3.28;59.91;99348.72;1728318;81;21070;-68
2021/03/12 07:10:49;;;;;;;41.98;13.40;;;;;;;-3.34;59.81;99357.19;1756030;81;21586;-68
2021/03/12 07:13:32;;;;;;;40.12;14.03;;;;;;;-3.38;60.02;99361.42;1756492;81;21145;-76
2021/03/12 07:16:05;;;;;;;26.15;10.80;;;;;;;-3.35;60.23;99344.78;1756848;81;22145;-69
2021/03/12 07:18:42;;;;;;;28.00;10.35;;;;;;;-3.32;60.23;99341.62;1757638;81;21571;-68
2021/03/12 07:21:13;;;;;;;21.95;10.75;;;;;;;-3.29;60.07;99320.93;1728035;81;21073;-69
2021/03/12 07:23:48;;;;;;;23.30;11.03;;;;;;;-3.33;60.41;99307.13;1728073;81;21499;-68
2021/03/12 07:26:19;;;;;;;26.50;11.63;;;;;;;-3.30;60.39;99309.87;1757352;81;21125;-66
2021/03/12 07:28:53;;;;;;;27.35;9.83;;;;;;;-3.31;60.12;99312.28;1757372;81;21414;-67
2021/03/12 07:31:42;;;;;;;24.57;9.48;;;;;;;-3.28;59.95;99311.81;1718654;83;20965;-71
2021/03/12 07:34:29;;;;;;;21.97;10.28;;;;;;;-3.29;60.03;99318.23;1689657;83;26566;-67
2021/03/12 07:37:03;;;;;;;19.42;10.48;;;;;;;-3.28;59.98;99326.64;1717789;83;21516;-72
2021/03/12 07:39:38;;;;;;;25.27;10.93;;;;;;;-3.27;59.96;99349.83;1668075;83;21083;-71
2021/03/12 07:42:10;;;;;;;23.27;9.43;;;;;;;-3.25;59.91;99338.30;1718199;83;22379;-66
2021/03/12 07:44:59;;;;;;;20.20;8.50;;;;;;;-3.24;60.25;99329.69;1718131;83;21143;-69
2021/03/12 07:47:47;;;;;;;24.32;9.43;;;;;;;-3.25;59.77;99315.90;1718161;83;21540;-67
2021/03/12 07:50:29;;;;;;;19.07;8.75;;;;;;;-3.26;60.21;99304.31;1689935;83;21579;-68
2021/03/12 07:53:02;;;;;;;18.77;9.80;;;;;;;-3.25;60.18;99296.52;1688222;83;21508;-73
2021/03/12 07:55:48;;;;;;;27.67;9.43;;;;;;;-3.22;60.50;99279.86;1717532;83;22240;-78
2021/03/12 07:58:50;;;;;;;19.35;8.30;;;;;;;-3.18;60.23;99292.36;1690342;83;21048;-68
2021/03/12 08:01:53;;;;;;;23.83;8.03;;;;;;;-3.15;60.29;99299.97;1717411;83;21087;-77
2021/03/12 08:04:45;;;;;;;22.77;8.90;;;;;;;-3.16;59.89;99299.69;1696513;83;21142;-77
2021/03/12 08:07:32;;;;;;;21.25;9.35;;;;;;;-3.15;60.39;99285.66;1776605;79;22746;-76
2021/03/12 08:10:19;;;;;;;25.00;9.63;;;;;;;-3.19;60.55;99292.08;1749351;82;20980;-73
2021/03/12 08:12:55;;;;;;;17.30;9.18;;;;;;;-3.09;60.82;99313.05;1749506;82;21277;-77
2021/03/12 08:15:35;;;;;;;20.80;9.58;;;;;;;-3.02;60.48;99308.34;1747818;82;21543;-73
2021/03/12 08:18:15;;;;;;;18.87;8.47;;;;;;;-2.98;60.42;99302.78;1748206;82;20983;-77
2021/03/12 08:20:47;;;;;;;21.07;9.08;;;;;;;-2.92;60.44;99305.59;1748834;82;20947;-77
2021/03/12 08:23:16;;;;;;;21.10;9.20;;;;;;;-2.91;60.27;99294.56;1748610;82;20940;-70
2021/03/12 08:25:50;;;;;;;23.07;8.28;;;;;;;-2.90;60.35;99284.61;1697986;82;21393;-76
2021/03/12 08:28:38;;;;;;;41.50;10.95;;;;;;;-2.88;60.59;99287.89;1749569;82;21491;-77
2021/03/12 08:31:16;;;;;;;19.48;9.08;;;;;;;-2.86;60.50;99284.41;1743802;82;20976;-67
2021/03/12 08:34:28;;;;;;;18.82;8.70;;;;;;;-2.81;60.44;99284.52;1776940;79;22813;-77
2021/03/12 08:37:01;;;;;;;;;;;;;;;-2.84;60.28;99273.69;1747702;82;21003;-73
2021/03/12 08:39:41;;;;;;;14.95;6.92;;;;;;;-2.78;60.69;99284.05;1747252;82;21409;-75
2021/03/12 08:42:56;;;;;;;25.77;9.43;;;;;;;-2.73;60.33;99284.16;1719577;83;21007;-70
2021/03/12 08:45:46;;;;;;;;;;;;;;;-2.73;60.00;99279.30;1701973;83;20936;-68
2021/03/12 08:48:31;;;;;;;20.90;8.08;;;;;;;-2.78;60.39;99251.67;1719662;82;20144;-70
2021/03/12 08:51:14;;;;;;;37.45;9.25;;;;;;;-2.82;62.19;99252.70;1719629;83;20940;-69
2021/03/12 08:53:54;;;;;;;30.43;8.60;;;;;;;-2.87;63.52;99256.64;1718849;83;21491;-75
2021/03/12 08:56:34;;;;;;;16.25;7.22;;;;;;;-2.85;63.62;99269.88;1719716;83;21046;-75
2021/03/12 08:59:05;;;;;;;23.02;8.70;;;;;;;-2.82;64.16;99255.40;1719641;83;21575;-68
2021/03/12 09:01:40;;;;;;;26.05;9.00;;;;;;;-2.79;65.14;99236.56;1712928;83;21563;-79
2021/03/12 09:04:10;;;;;;;24.20;10.23;;;;;;;-2.73;65.03;99240.19;1718577;83;21622;-76
2021/03/12 09:06:49;;;;;;;23.22;8.35;;;;;;;-2.69;65.11;99246.73;1719172;83;21201;-67
2021/03/12 09:09:35;;;;;;;29.63;9.48;;;;;;;-2.70;64.34;99248.63;1690799;83;21570;-77
2021/03/12 09:12:14;;;;;;;29.07;9.53;;;;;;;-2.70;64.40;99245.93;1717465;83;21507;-75
2021/03/12 09:14:48;;;;;;;30.10;9.30;;;;;;;-2.71;63.75;99240.75;1719518;83;21590;-68
2021/03/12 09:17:21;;;;;;;21.85;9.98;;;;;;;-2.71;64.34;99229.44;1719611;83;21118;-67
2021/03/12 09:19:53;;;;;;;27.27;9.70;;;;;;;-2.67;63.83;99214.95;1719826;83;21285;-66
2021/03/12 09:22:31;;;;;;;21.35;8.33;;;;;;;-2.68;63.72;99206.57;1719386;82;20998;-77
2021/03/12 09:25:02;;;;;;;20.60;9.30;;;;;;;-2.67;63.71;99194.71;1719659;83;20936;-70
2021/03/12 09:27:41;;;;;;;24.77;9.40;;;;;;;-2.66;63.58;99203.63;1718097;83;21070;-69
2021/03/12 09:30:31;;;;;;;24.30;12.80;;;;;;;-2.68;62.86;99209.27;1693543;83;21170;-75
2021/03/12 09:33:03;;;;;;;17.05;8.00;;;;;;;-2.68;62.41;99206.57;1719552;83;21336;-69
2021/03/12 09:35:45;;;;;;;24.72;8.38;;;;;;;-2.67;62.62;99212.77;1718597;83;20959;-77
2021/03/12 09:38:35;;;;;;;21.68;8.38;;;;;;;-2.68;62.53;99207.92;1720410;83;21022;-71
2021/03/12 09:41:20;;;;;;;23.18;9.68;;;;;;;-2.65;62.40;99209.30;1720412;83;21570;-78
2021/03/12 09:44:11;;;;;;;25.10;9.35;;;;;;;-2.63;62.31;99191.83;1720228;83;20936;-76
2021/03/12 09:46:58;;;;;;;23.57;9.73;;;;;;;-2.65;62.39;99190.42;1719846;83;21378;-71
2021/03/12 09:49:42;;;;;;;25.68;10.48;;;;;;;-2.67;64.21;99190.66;1719808;83;21105;-75
2021/03/12 09:52:18;;;;;;;23.62;10.10;;;;;;;-2.71;64.07;99200.28;1719253;83;21054;-76
2021/03/12 09:54:50;;;;;;;25.12;9.50;;;;;;;-2.74;64.33;99193.50;1719716;82;21027;-76
2021/03/12 09:57:24;;;;;;;20.57;8.83;;;;;;;-2.70;63.61;99200.06;1694318;83;20999;-78
2021/03/12 09:59:55;;;;;;;28.25;9.45;;;;;;;-2.68;63.35;99180.94;1719867;82;21453;-78
2021/03/12 10:02:54;;;;;;;24.82;8.68;;;;;;;-2.63;63.38;99191.83;1719628;82;20959;-76
2021/03/12 10:05:27;;;;;;;24.90;9.23;;;;;;;-2.61;63.39;99180.80;1719297;83;20944;-75
2021/03/12 10:08:09;;;;;;;36.10;11.30;;;;;;;-2.62;69.48;99180.49;1719797;83;21007;-68
2021/03/12 10:10:46;;;;;;;19.62;8.55;;;;;;;-2.64;71.79;99170.46;1718168;83;21082;-71
2021/03/12 10:13:23;;;;;;;27.55;10.43;;;;;;;-2.63;70.66;99165.38;1689573;83;21166;-73
2021/03/12 10:15:53;;;;;;;23.57;10.32;;;;;;;-2.65;74.82;99171.53;1719909;83;21018;-75
2021/03/12 10:18:24;;;;;;;25.90;11.45;;;;;;;-2.66;77.43;99165.86;1719085;83;20967;-75
2021/03/12 10:20:56;;;;;;;23.50;9.48;;;;;;;-2.65;78.08;99162.09;1688641;83;21074;-77
2021/03/12 10:23:27;;;;;;;23.77;10.93;;;;;;;-2.66;77.29;99161.81;1719922;83;21129;-76
2021/03/12 10:25:56;;;;;;;24.37;11.33;;;;;;;-2.63;76.13;99154.58;1719806;83;21007;-69
2021/03/12 10:28:26;;;;;;;27.30;12.00;;;;;;;-2.65;84.11;99160.73;1693380;83;21078;-76
2021/03/12 10:31:14;;;;;;;28.70;11.50;;;;;;;-2.71;90.56;99166.56;1696770;83;21116;-74
2021/03/12 10:33:48;;;;;;;24.80;10.20;;;;;;;-2.76;93.26;99162.45;1719675;83;21067;-76
2021/03/12 10:36:18;;;;;;;24.40;9.75;;;;;;;-2.78;94.34;99165.35;1719884;83;21642;-68
2021/03/12 10:38:53;;;;;;;18.17;8.80;;;;;;;-2.83;94.75;99167.43;1720034;83;22096;-77
2021/03/12 10:41:25;;;;;;;22.62;10.08;;;;;;;-2.87;94.91;99151.97;1719819;83;21117;-76
2021/03/12 10:44:01;;;;;;;;;;;;;;;-2.95;95.12;99159.92;1722407;83;21099;-79
2021/03/12 10:46:33;;;;;;;22.90;11.35;;;;;;;-2.99;95.56;99159.58;1719788;83;20227;-79
2021/03/12 10:49:04;;;;;;;27.70;10.90;;;;;;;-3.02;95.67;99161.38;1720120;83;21136;-72
2021/03/12 10:51:41;;;;;;;21.52;10.38;;;;;;;-3.02;96.04;99151.14;1719919;83;21524;-78
2021/03/12 10:54:13;;;;;;;28.62;10.85;;;;;;;-3.04;96.05;99145.99;1719805;83;20999;-70
2021/03/12 10:56:47;;;;;;;26.15;11.68;;;;;;;-3.06;96.17;99159.72;1720015;83;20947;-72
2021/03/12 10:59:16;;;;;;;25.52;11.83;;;;;;;-3.08;96.25;99152.91;1719751;83;21220;-67
2021/03/12 11:01:48;;;;;;;21.10;10.40;;;;;;;-3.08;97.10;99147.52;1719756;83;20920;-74
2021/03/12 11:04:18;;;;;;;22.73;12.05;;;;;;;-3.10;97.21;99145.58;1719796;83;21329;-67
2021/03/12 11:07:06;;;;;;;23.00;10.80;;;;;;;-3.17;97.51;99155.15;1718236;83;21069;-71
2021/03/12 11:09:38;;;;;;;26.12;11.57;;;;;;;-3.18;97.87;99147.61;1719813;83;21571;-71
2021/03/12 11:12:06;;;;;;;24.02;11.80;;;;;;;-3.18;97.90;99148.13;1719762;83;21090;-67
2021/03/12 11:14:38;;;;;;;27.73;12.05;;;;;;;-3.21;97.80;99146.72;1720028;83;21150;-73
2021/03/12 11:17:06;;;;;;;29.27;11.97;;;;;;;-3.22;97.83;99145.09;1719815;83;21575;-69
2021/03/12 11:19:36;;;;;;;27.80;12.73;;;;;;;-3.24;98.39;99149.89;1719731;83;21167;-69
2021/03/12 11:22:04;;;;;;;28.62;12.00;;;;;;;-3.24;98.75;99148.55;1719826;83;21121;-71
2021/03/12 11:24:34;;;;;;;37.48;14.93;;;;;;;-3.27;99.10;99143.63;1719726;83;21070;-74
2021/03/12 11:27:01;;;;;;;23.90;11.55;;;;;;;-3.25;99.50;99146.91;1719872;83;21009;-68
2021/03/12 11:29:32;;;;;;;24.50;11.12;;;;;;;-3.21;99.78;99130.55;1719785;83;21388;-72
2021/03/12 11:32:00;;;;;;;21.17;11.05;;;;;;;-3.20;99.99;99142.16;1719797;83;21587;-68
2021/03/12 11:34:47;;;;;;;23.12;11.85;;;;;;;-3.20;100.00;99130.85;1686211;83;21182;-72
2021/03/12 11:37:33;;;;;;;22.07;11.05;;;;;;;-3.19;100.00;99132.48;1720020;83;21459;-74
2021/03/12 11:40:03;;;;;;;31.10;11.43;;;;;;;-3.19;100.00;99122.25;1719739;83;21618;-69
2021/03/12 11:42:41;;;;;;;28.92;12.33;;;;;;;-3.17;100.00;99117.41;1719834;83;21014;-71
2021/03/12 11:45:30;;;;;;;25.82;13.75;;;;;;;-3.18;100.00;99100.44;1718221;83;21047;-67
2021/03/12 11:48:16;;;;;;;28.87;13.95;;;;;;;-3.13;100.00;99090.80;1694498;83;21162;-75
2021/03/12 11:50:57;;;;;;;26.77;14.87;;;;;;;-3.07;100.00;99096.05;1719159;83;21081;-70
2021/03/12 11:53:43;;;;;;;31.37;15.83;;;;;;;-3.00;100.00;99080.28;1720527;83;21169;-68
2021/03/12 11:56:58;;;;;;;30.90;13.80;;;;;;;-2.92;100.00;99077.71;1719684;83;21489;-70
2021/03/12 11:59:57;;;;;;;26.52;13.03;;;;;;;-2.92;100.00;99078.54;1719991;83;21156;-67